sensor_id;sensor_type;location;lat;lon;timestamp;P1;durP1;ratioP1;P2;durP2;ratioP2
73823;SDS011;62154;54.914;73.444;2023-11-21T00:01:46;48.40;;;15.75;;
73823;SDS011;62154;54.914;73.444;2023-11-21T00:04:14;47.70;;;15.50;;
73823;SDS011;62154;54.914;73.444;2023-11-21T00:06:41;73.05;;;16.63;;
73823;SDS011;62154;54.914;73.444;2023-11-21T00:09:11;43.22;;;15.07;;
73823;SDS011;62154;54.914;73.444;2023-11-21T00:11:39;49.45;;;16.88;;
73823;SDS011;62154;54.914;73.444;2023-11-21T00:14:06;55.10;;;14.93;;
73823;SDS011;62154;54.914;73.444;2023-11-21T00:16:34;43.50;;;15.07;;
73823;SDS011;62154;54.914;73.444;2023-11-21T00:19:01;50.83;;;14.75;;
73823;SDS011;62154;54.914;73.444;2023-11-21T00:21:29;47.03;;;15.52;;
73823;SDS011;62154;54.914;73.444;2023-11-21T00:23:56;44.47;;;14.75;;
73823;SDS011;62154;54.914;73.444;2023-11-21T00:26:23;70.32;;;16.13;;
73823;SDS011;62154;54.914;73.444;2023-11-21T00:29:01;63.67;;;15.07;;
73823;SDS011;62154;54.914;73.444;2023-11-21T00:31:29;61.08;;;15.15;;
73823;SDS011;62154;54.914;73.444;2023-11-21T00:34:00;97.15;;;35.15;;
73823;SDS011;62154;54.914;73.444;2023-11-21T00:36:27;44.70;;;14.50;;
73823;SDS011;62154;54.914;73.444;2023-11-21T00:38:54;35.30;;;12.75;;
73823;SDS011;62154;54.914;73.444;2023-11-21T00:41:22;55.47;;;15.35;;
73823;SDS011;62154;54.914;73.444;2023-11-21T00:43:49;254.50;;;81.13;;
73823;SDS011;62154;54.914;73.444;2023-11-21T00:46:17;67.30;;;16.73;;
73823;SDS011;62154;54.914;73.444;2023-11-21T00:48:44;84.50;;;16.85;;
73823;SDS011;62154;54.914;73.444;2023-11-21T00:51:11;126.60;;;20.15;;
73823;SDS011;62154;54.914;73.444;2023-11-21T00:53:38;109.75;;;17.88;;
73823;SDS011;62154;54.914;73.444;2023-11-21T00:56:10;57.89;;;20.90;;
73823;SDS011;62154;54.914;73.444;2023-11-21T00:58:37;61.55;;;18.00;;
73823;SDS011;62154;54.914;73.444;2023-11-21T01:01:05;77.30;;;20.25;;
73823;SDS011;62154;54.914;73.444;2023-11-21T01:03:42;57.97;;;18.00;;
73823;SDS011;62154;54.914;73.444;2023-11-21T01:06:15;61.08;;;18.12;;
73823;SDS011;62154;54.914;73.444;2023-11-21T01:08:43;66.72;;;26.30;;
73823;SDS011;62154;54.914;73.444;2023-11-21T01:11:11;47.85;;;17.08;;
73823;SDS011;62154;54.914;73.444;2023-11-21T01:13:42;45.00;;;15.93;;
73823;SDS011;62154;54.914;73.444;2023-11-21T01:16:11;55.97;;;20.85;;
73823;SDS011;62154;54.914;73.444;2023-11-21T01:18:38;58.58;;;22.95;;
73823;SDS011;62154;54.914;73.444;2023-11-21T01:21:06;53.17;;;18.98;;
73823;SDS011;62154;54.914;73.444;2023-11-21T01:23:34;49.58;;;17.27;;
73823;SDS011;62154;54.914;73.444;2023-11-21T01:26:01;48.08;;;18.30;;
73823;SDS011;62154;54.914;73.444;2023-11-21T01:28:29;69.78;;;20.48;;
73823;SDS011;62154;54.914;73.444;2023-11-21T01:30:57;50.47;;;15.50;;
73823;SDS011;62154;54.914;73.444;2023-11-21T01:33:25;48.42;;;15.93;;
73823;SDS011;62154;54.914;73.444;2023-11-21T01:35:52;43.50;;;13.73;;
73823;SDS011;62154;54.914;73.444;2023-11-21T01:38:21;47.97;;;16.85;;
73823;SDS011;62154;54.914;73.444;2023-11-21T01:40:48;44.97;;;16.50;;
73823;SDS011;62154;54.914;73.444;2023-11-21T01:43:16;44.50;;;16.55;;
73823;SDS011;62154;54.914;73.444;2023-11-21T01:45:44;46.13;;;15.93;;
73823;SDS011;62154;54.914;73.444;2023-11-21T01:48:14;44.70;;;15.10;;
73823;SDS011;62154;54.914;73.444;2023-11-21T01:50:43;34.90;;;13.77;;
73823;SDS011;62154;54.914;73.444;2023-11-21T01:53:11;35.60;;;14.27;;
73823;SDS011;62154;54.914;73.444;2023-11-21T01:55:42;52.33;;;15.57;;
73823;SDS011;62154;54.914;73.444;2023-11-21T01:58:10;33.33;;;13.20;;
73823;SDS011;62154;54.914;73.444;2023-11-21T02:00:38;33.80;;;13.35;;
73823;SDS011;62154;54.914;73.444;2023-11-21T02:03:06;47.83;;;15.65;;
73823;SDS011;62154;54.914;73.444;2023-11-21T02:05:33;48.33;;;16.73;;
73823;SDS011;62154;54.914;73.444;2023-11-21T02:08:01;47.90;;;14.70;;
73823;SDS011;62154;54.914;73.444;2023-11-21T02:10:30;43.13;;;15.20;;
73823;SDS011;62154;54.914;73.444;2023-11-21T02:12:58;37.78;;;13.18;;
73823;SDS011;62154;54.914;73.444;2023-11-21T02:15:29;60.25;;;17.35;;
73823;SDS011;62154;54.914;73.444;2023-11-21T02:17:57;65.57;;;19.23;;
73823;SDS011;62154;54.914;73.444;2023-11-21T02:20:24;59.88;;;19.65;;
73823;SDS011;62154;54.914;73.444;2023-11-21T02:22:56;63.30;;;18.77;;
73823;SDS011;62154;54.914;73.444;2023-11-21T02:25:28;77.30;;;22.40;;
73823;SDS011;62154;54.914;73.444;2023-11-21T02:27:56;88.03;;;25.10;;
73823;SDS011;62154;54.914;73.444;2023-11-21T02:30:26;80.57;;;22.33;;
73823;SDS011;62154;54.914;73.444;2023-11-21T02:32:54;67.22;;;21.23;;
73823;SDS011;62154;54.914;73.444;2023-11-21T02:35:23;59.20;;;19.05;;
73823;SDS011;62154;54.914;73.444;2023-11-21T02:37:52;66.63;;;19.23;;
73823;SDS011;62154;54.914;73.444;2023-11-21T02:40:20;60.95;;;19.25;;
73823;SDS011;62154;54.914;73.444;2023-11-21T02:42:48;50.00;;;16.02;;
73823;SDS011;62154;54.914;73.444;2023-11-21T02:45:18;44.17;;;16.05;;
73823;SDS011;62154;54.914;73.444;2023-11-21T02:47:47;39.63;;;15.05;;
73823;SDS011;62154;54.914;73.444;2023-11-21T02:50:19;36.03;;;13.93;;
73823;SDS011;62154;54.914;73.444;2023-11-21T02:52:49;44.40;;;13.80;;
73823;SDS011;62154;54.914;73.444;2023-11-21T02:55:17;40.28;;;15.80;;
73823;SDS011;62154;54.914;73.444;2023-11-21T02:57:45;36.25;;;14.48;;
73823;SDS011;62154;54.914;73.444;2023-11-21T03:00:12;41.58;;;15.02;;
73823;SDS011;62154;54.914;73.444;2023-11-21T03:02:41;40.35;;;14.30;;
73823;SDS011;62154;54.914;73.444;2023-11-21T03:05:09;40.20;;;14.77;;
73823;SDS011;62154;54.914;73.444;2023-11-21T03:07:37;37.47;;;13.45;;
73823;SDS011;62154;54.914;73.444;2023-11-21T03:10:05;40.70;;;15.38;;
73823;SDS011;62154;54.914;73.444;2023-11-21T03:12:35;42.08;;;15.85;;
73823;SDS011;62154;54.914;73.444;2023-11-21T03:15:04;45.25;;;15.80;;
73823;SDS011;62154;54.914;73.444;2023-11-21T03:17:32;42.60;;;16.60;;
73823;SDS011;62154;54.914;73.444;2023-11-21T03:20:03;43.15;;;14.65;;
73823;SDS011;62154;54.914;73.444;2023-11-21T03:22:31;47.38;;;15.50;;
73823;SDS011;62154;54.914;73.444;2023-11-21T03:24:59;39.25;;;14.70;;
73823;SDS011;62154;54.914;73.444;2023-11-21T03:27:32;43.44;;;15.59;;
73823;SDS011;62154;54.914;73.444;2023-11-21T03:29:59;62.67;;;16.95;;
73823;SDS011;62154;54.914;73.444;2023-11-21T03:32:29;48.42;;;16.40;;
73823;SDS011;62154;54.914;73.444;2023-11-21T03:34:59;49.38;;;16.05;;
73823;SDS011;62154;54.914;73.444;2023-11-21T03:37:28;46.63;;;15.77;;
73823;SDS011;62154;54.914;73.444;2023-11-21T03:39:56;45.55;;;14.77;;
73823;SDS011;62154;54.914;73.444;2023-11-21T03:42:23;49.50;;;17.05;;
73823;SDS011;62154;54.914;73.444;2023-11-21T03:44:54;45.28;;;13.95;;
73823;SDS011;62154;54.914;73.444;2023-11-21T03:47:22;45.10;;;14.82;;
73823;SDS011;62154;54.914;73.444;2023-11-21T03:49:49;53.25;;;16.42;;
73823;SDS011;62154;54.914;73.444;2023-11-21T03:52:16;47.17;;;16.35;;
73823;SDS011;62154;54.914;73.444;2023-11-21T03:54:44;57.63;;;18.40;;
73823;SDS011;62154;54.914;73.444;2023-11-21T03:57:11;55.72;;;16.23;;
73823;SDS011;62154;54.914;73.444;2023-11-21T03:59:42;44.20;;;17.17;;
73823;SDS011;62154;54.914;73.444;2023-11-21T04:02:10;54.40;;;16.38;;
73823;SDS011;62154;54.914;73.444;2023-11-21T04:04:37;51.58;;;15.93;;
73823;SDS011;62154;54.914;73.444;2023-11-21T04:07:04;47.58;;;14.82;;
73823;SDS011;62154;54.914;73.444;2023-11-21T04:09:32;46.28;;;15.25;;
73823;SDS011;62154;54.914;73.444;2023-11-21T04:11:59;47.13;;;15.68;;
73823;SDS011;62154;54.914;73.444;2023-11-21T04:14:27;37.10;;;14.13;;
73823;SDS011;62154;54.914;73.444;2023-11-21T04:16:55;37.83;;;12.50;;
73823;SDS011;62154;54.914;73.444;2023-11-21T04:19:23;33.20;;;11.65;;
73823;SDS011;62154;54.914;73.444;2023-11-21T04:21:50;36.13;;;12.73;;
73823;SDS011;62154;54.914;73.444;2023-11-21T04:24:17;32.90;;;11.02;;
73823;SDS011;62154;54.914;73.444;2023-11-21T04:26:45;27.40;;;10.40;;
73823;SDS011;62154;54.914;73.444;2023-11-21T04:29:13;31.25;;;11.05;;
73823;SDS011;62154;54.914;73.444;2023-11-21T04:31:50;28.85;;;11.75;;
73823;SDS011;62154;54.914;73.444;2023-11-21T04:34:17;28.50;;;9.98;;
73823;SDS011;62154;54.914;73.444;2023-11-21T04:36:45;30.15;;;10.55;;
73823;SDS011;62154;54.914;73.444;2023-11-21T04:39:12;29.00;;;9.82;;
73823;SDS011;62154;54.914;73.444;2023-11-21T04:41:40;33.35;;;10.05;;
73823;SDS011;62154;54.914;73.444;2023-11-21T04:44:07;31.17;;;10.40;;
73823;SDS011;62154;54.914;73.444;2023-11-21T04:46:35;31.40;;;10.70;;
73823;SDS011;62154;54.914;73.444;2023-11-21T04:49:02;34.90;;;9.90;;
73823;SDS011;62154;54.914;73.444;2023-11-21T04:51:30;26.55;;;10.32;;
73823;SDS011;62154;54.914;73.444;2023-11-21T04:53:59;24.23;;;9.15;;
73823;SDS011;62154;54.914;73.444;2023-11-21T04:56:26;27.92;;;11.38;;
73823;SDS011;62154;54.914;73.444;2023-11-21T04:58:54;27.50;;;9.63;;
73823;SDS011;62154;54.914;73.444;2023-11-21T05:01:21;31.70;;;10.45;;
73823;SDS011;62154;54.914;73.444;2023-11-21T05:03:49;22.55;;;9.40;;
73823;SDS011;62154;54.914;73.444;2023-11-21T05:06:16;26.00;;;9.45;;
73823;SDS011;62154;54.914;73.444;2023-11-21T05:08:44;23.88;;;9.60;;
73823;SDS011;62154;54.914;73.444;2023-11-21T05:11:11;25.65;;;10.20;;
73823;SDS011;62154;54.914;73.444;2023-11-21T05:13:38;27.08;;;8.77;;
73823;SDS011;62154;54.914;73.444;2023-11-21T05:16:06;21.50;;;8.73;;
73823;SDS011;62154;54.914;73.444;2023-11-21T05:18:34;21.78;;;8.87;;
73823;SDS011;62154;54.914;73.444;2023-11-21T05:21:01;26.65;;;9.45;;
73823;SDS011;62154;54.914;73.444;2023-11-21T05:23:29;29.15;;;10.20;;
73823;SDS011;62154;54.914;73.444;2023-11-21T05:25:56;27.98;;;8.98;;
73823;SDS011;62154;54.914;73.444;2023-11-21T05:28:24;19.88;;;8.95;;
73823;SDS011;62154;54.914;73.444;2023-11-21T05:30:52;22.15;;;8.00;;
73823;SDS011;62154;54.914;73.444;2023-11-21T05:33:20;23.30;;;9.18;;
73823;SDS011;62154;54.914;73.444;2023-11-21T05:35:47;18.27;;;8.18;;
73823;SDS011;62154;54.914;73.444;2023-11-21T05:38:15;20.00;;;8.25;;
73823;SDS011;62154;54.914;73.444;2023-11-21T05:40:42;38.35;;;8.98;;
73823;SDS011;62154;54.914;73.444;2023-11-21T05:43:10;25.70;;;9.02;;
73823;SDS011;62154;54.914;73.444;2023-11-21T05:45:38;21.95;;;8.43;;
73823;SDS011;62154;54.914;73.444;2023-11-21T05:48:05;18.77;;;7.85;;
73823;SDS011;62154;54.914;73.444;2023-11-21T05:50:33;21.83;;;8.13;;
73823;SDS011;62154;54.914;73.444;2023-11-21T05:53:00;24.10;;;8.15;;
73823;SDS011;62154;54.914;73.444;2023-11-21T05:55:29;18.80;;;7.95;;
73823;SDS011;62154;54.914;73.444;2023-11-21T05:57:56;16.95;;;7.53;;
73823;SDS011;62154;54.914;73.444;2023-11-21T06:00:24;22.08;;;8.65;;
73823;SDS011;62154;54.914;73.444;2023-11-21T06:02:53;19.75;;;7.05;;
73823;SDS011;62154;54.914;73.444;2023-11-21T06:05:24;18.73;;;8.05;;
73823;SDS011;62154;54.914;73.444;2023-11-21T06:07:53;21.85;;;8.55;;
73823;SDS011;62154;54.914;73.444;2023-11-21T06:10:25;21.98;;;9.38;;
73823;SDS011;62154;54.914;73.444;2023-11-21T06:12:52;23.80;;;9.00;;
73823;SDS011;62154;54.914;73.444;2023-11-21T06:15:20;21.00;;;7.57;;
73823;SDS011;62154;54.914;73.444;2023-11-21T06:17:50;23.88;;;9.75;;
73823;SDS011;62154;54.914;73.444;2023-11-21T06:20:21;21.65;;;8.20;;
73823;SDS011;62154;54.914;73.444;2023-11-21T06:22:50;90.65;;;31.75;;
73823;SDS011;62154;54.914;73.444;2023-11-21T06:25:18;22.95;;;8.85;;
73823;SDS011;62154;54.914;73.444;2023-11-21T06:27:46;62.92;;;19.38;;
73823;SDS011;62154;54.914;73.444;2023-11-21T06:30:15;23.30;;;9.38;;
73823;SDS011;62154;54.914;73.444;2023-11-21T06:32:42;10.82;;;5.22;;
73823;SDS011;62154;54.914;73.444;2023-11-21T06:35:13;72.32;;;24.85;;
73823;SDS011;62154;54.914;73.444;2023-11-21T06:37:42;13.55;;;6.10;;
73823;SDS011;62154;54.914;73.444;2023-11-21T06:40:14;52.40;;;19.05;;
73823;SDS011;62154;54.914;73.444;2023-11-21T06:42:41;27.65;;;11.35;;
73823;SDS011;62154;54.914;73.444;2023-11-21T06:45:10;16.40;;;6.82;;
73823;SDS011;62154;54.914;73.444;2023-11-21T06:47:38;22.17;;;8.38;;
73823;SDS011;62154;54.914;73.444;2023-11-21T06:50:06;13.60;;;6.45;;
73823;SDS011;62154;54.914;73.444;2023-11-21T06:52:33;16.05;;;7.60;;
73823;SDS011;62154;54.914;73.444;2023-11-21T06:55:00;12.13;;;6.20;;
73823;SDS011;62154;54.914;73.444;2023-11-21T06:57:29;14.25;;;6.35;;
73823;SDS011;62154;54.914;73.444;2023-11-21T06:59:59;14.60;;;6.50;;
73823;SDS011;62154;54.914;73.444;2023-11-21T07:02:26;20.23;;;6.88;;
73823;SDS011;62154;54.914;73.444;2023-11-21T07:04:54;14.77;;;7.00;;
73823;SDS011;62154;54.914;73.444;2023-11-21T07:07:21;14.55;;;6.13;;
73823;SDS011;62154;54.914;73.444;2023-11-21T07:09:51;18.65;;;7.30;;
73823;SDS011;62154;54.914;73.444;2023-11-21T07:12:18;10.38;;;5.90;;
73823;SDS011;62154;54.914;73.444;2023-11-21T07:14:45;17.05;;;6.47;;
73823;SDS011;62154;54.914;73.444;2023-11-21T07:17:13;15.98;;;6.80;;
73823;SDS011;62154;54.914;73.444;2023-11-21T07:19:40;15.01;;;6.07;;
73823;SDS011;62154;54.914;73.444;2023-11-21T07:22:07;20.60;;;6.88;;
73823;SDS011;62154;54.914;73.444;2023-11-21T07:24:35;18.05;;;6.00;;
73823;SDS011;62154;54.914;73.444;2023-11-21T07:27:03;17.33;;;7.20;;
73823;SDS011;62154;54.914;73.444;2023-11-21T07:29:32;17.00;;;6.30;;
73823;SDS011;62154;54.914;73.444;2023-11-21T07:32:00;15.52;;;5.88;;
73823;SDS011;62154;54.914;73.444;2023-11-21T07:34:27;19.10;;;7.13;;
73823;SDS011;62154;54.914;73.444;2023-11-21T07:36:55;16.38;;;8.70;;
73823;SDS011;62154;54.914;73.444;2023-11-21T07:39:22;19.60;;;7.70;;
73823;SDS011;62154;54.914;73.444;2023-11-21T07:41:49;18.33;;;5.63;;
73823;SDS011;62154;54.914;73.444;2023-11-21T07:44:17;19.35;;;7.15;;
73823;SDS011;62154;54.914;73.444;2023-11-21T07:46:44;22.17;;;8.30;;
73823;SDS011;62154;54.914;73.444;2023-11-21T07:49:12;17.88;;;7.00;;
73823;SDS011;62154;54.914;73.444;2023-11-21T07:51:47;12.63;;;6.72;;
73823;SDS011;62154;54.914;73.444;2023-11-21T07:54:14;17.25;;;7.45;;
73823;SDS011;62154;54.914;73.444;2023-11-21T07:56:42;19.08;;;7.28;;
73823;SDS011;62154;54.914;73.444;2023-11-21T07:59:10;14.43;;;7.03;;
73823;SDS011;62154;54.914;73.444;2023-11-21T08:01:38;15.07;;;6.32;;
73823;SDS011;62154;54.914;73.444;2023-11-21T08:04:07;17.00;;;6.38;;
73823;SDS011;62154;54.914;73.444;2023-11-21T08:06:35;16.38;;;7.55;;
73823;SDS011;62154;54.914;73.444;2023-11-21T08:09:03;17.35;;;7.93;;
73823;SDS011;62154;54.914;73.444;2023-11-21T08:11:31;14.32;;;5.68;;
73823;SDS011;62154;54.914;73.444;2023-11-21T08:13:59;17.45;;;7.80;;
73823;SDS011;62154;54.914;73.444;2023-11-21T08:16:26;20.45;;;8.02;;
73823;SDS011;62154;54.914;73.444;2023-11-21T08:18:54;21.55;;;8.52;;
73823;SDS011;62154;54.914;73.444;2023-11-21T08:21:21;19.92;;;8.43;;
73823;SDS011;62154;54.914;73.444;2023-11-21T08:23:55;18.95;;;8.30;;
73823;SDS011;62154;54.914;73.444;2023-11-21T08:26:23;20.42;;;8.13;;
73823;SDS011;62154;54.914;73.444;2023-11-21T08:28:50;24.75;;;8.18;;
73823;SDS011;62154;54.914;73.444;2023-11-21T08:31:25;21.17;;;8.93;;
73823;SDS011;62154;54.914;73.444;2023-11-21T08:33:53;18.85;;;8.18;;
73823;SDS011;62154;54.914;73.444;2023-11-21T08:36:23;16.20;;;7.13;;
73823;SDS011;62154;54.914;73.444;2023-11-21T08:38:53;18.58;;;7.70;;
73823;SDS011;62154;54.914;73.444;2023-11-21T08:41:21;18.33;;;7.75;;
73823;SDS011;62154;54.914;73.444;2023-11-21T08:43:49;18.58;;;8.05;;
73823;SDS011;62154;54.914;73.444;2023-11-21T08:46:17;16.70;;;7.75;;
73823;SDS011;62154;54.914;73.444;2023-11-21T08:48:44;18.27;;;6.53;;
73823;SDS011;62154;54.914;73.444;2023-11-21T08:51:14;15.27;;;7.20;;
73823;SDS011;62154;54.914;73.444;2023-11-21T08:53:42;13.65;;;7.43;;
73823;SDS011;62154;54.914;73.444;2023-11-21T08:56:12;16.17;;;6.88;;
73823;SDS011;62154;54.914;73.444;2023-11-21T08:58:43;21.50;;;7.68;;
73823;SDS011;62154;54.914;73.444;2023-11-21T09:01:10;15.88;;;7.38;;
73823;SDS011;62154;54.914;73.444;2023-11-21T09:03:38;18.35;;;7.75;;
73823;SDS011;62154;54.914;73.444;2023-11-21T09:06:06;26.77;;;7.07;;
73823;SDS011;62154;54.914;73.444;2023-11-21T09:08:36;17.52;;;7.68;;
73823;SDS011;62154;54.914;73.444;2023-11-21T09:11:06;16.77;;;7.65;;
73823;SDS011;62154;54.914;73.444;2023-11-21T09:13:35;14.13;;;7.18;;
73823;SDS011;62154;54.914;73.444;2023-11-21T09:16:03;19.95;;;6.68;;
73823;SDS011;62154;54.914;73.444;2023-11-21T09:18:30;14.90;;;6.68;;
73823;SDS011;62154;54.914;73.444;2023-11-21T09:20:58;17.82;;;6.68;;
73823;SDS011;62154;54.914;73.444;2023-11-21T09:23:25;14.60;;;6.63;;
73823;SDS011;62154;54.914;73.444;2023-11-21T09:25:53;15.63;;;6.97;;
73823;SDS011;62154;54.914;73.444;2023-11-21T09:28:23;14.77;;;6.57;;
73823;SDS011;62154;54.914;73.444;2023-11-21T09:30:50;16.85;;;6.57;;
73823;SDS011;62154;54.914;73.444;2023-11-21T09:33:17;13.02;;;6.25;;
73823;SDS011;62154;54.914;73.444;2023-11-21T09:35:45;15.25;;;7.50;;
73823;SDS011;62154;54.914;73.444;2023-11-21T09:38:12;13.20;;;6.13;;
73823;SDS011;62154;54.914;73.444;2023-11-21T09:40:39;14.43;;;6.70;;
73823;SDS011;62154;54.914;73.444;2023-11-21T09:43:08;13.82;;;7.40;;
73823;SDS011;62154;54.914;73.444;2023-11-21T09:45:46;16.05;;;6.15;;
73823;SDS011;62154;54.914;73.444;2023-11-21T09:48:14;12.63;;;5.55;;
73823;SDS011;62154;54.914;73.444;2023-11-21T09:50:43;16.50;;;5.65;;
73823;SDS011;62154;54.914;73.444;2023-11-21T09:53:14;19.58;;;5.65;;
73823;SDS011;62154;54.914;73.444;2023-11-21T09:55:48;10.80;;;6.47;;
73823;SDS011;62154;54.914;73.444;2023-11-21T09:58:17;15.50;;;6.50;;
73823;SDS011;62154;54.914;73.444;2023-11-21T10:00:46;11.90;;;6.53;;
73823;SDS011;62154;54.914;73.444;2023-11-21T10:03:15;14.02;;;6.15;;
73823;SDS011;62154;54.914;73.444;2023-11-21T10:05:43;16.48;;;6.18;;
73823;SDS011;62154;54.914;73.444;2023-11-21T10:08:14;19.88;;;6.82;;
73823;SDS011;62154;54.914;73.444;2023-11-21T10:10:43;14.70;;;5.50;;
73823;SDS011;62154;54.914;73.444;2023-11-21T10:13:12;13.38;;;5.95;;
73823;SDS011;62154;54.914;73.444;2023-11-21T10:15:43;15.07;;;6.10;;
73823;SDS011;62154;54.914;73.444;2023-11-21T10:18:16;13.38;;;5.68;;
73823;SDS011;62154;54.914;73.444;2023-11-21T10:20:45;17.33;;;6.28;;
73823;SDS011;62154;54.914;73.444;2023-11-21T10:23:21;16.20;;;6.57;;
73823;SDS011;62154;54.914;73.444;2023-11-21T10:25:50;13.35;;;6.35;;
73823;SDS011;62154;54.914;73.444;2023-11-21T10:28:18;14.05;;;6.68;;
73823;SDS011;62154;54.914;73.444;2023-11-21T10:30:47;15.40;;;6.05;;
73823;SDS011;62154;54.914;73.444;2023-11-21T10:33:14;15.52;;;6.88;;
73823;SDS011;62154;54.914;73.444;2023-11-21T10:38:21;13.95;;;6.15;;
73823;SDS011;62154;54.914;73.444;2023-11-21T10:40:50;13.30;;;6.40;;
73823;SDS011;62154;54.914;73.444;2023-11-21T10:43:18;14.23;;;6.90;;
73823;SDS011;62154;54.914;73.444;2023-11-21T10:45:45;14.32;;;6.45;;
73823;SDS011;62154;54.914;73.444;2023-11-21T10:48:13;14.18;;;5.65;;
73823;SDS011;62154;54.914;73.444;2023-11-21T10:50:45;17.40;;;6.35;;
73823;SDS011;62154;54.914;73.444;2023-11-21T10:53:13;14.32;;;6.28;;
73823;SDS011;62154;54.914;73.444;2023-11-21T10:55:41;12.73;;;5.65;;
73823;SDS011;62154;54.914;73.444;2023-11-21T10:58:10;17.33;;;6.43;;
73823;SDS011;62154;54.914;73.444;2023-11-21T11:00:41;15.23;;;6.20;;
73823;SDS011;62154;54.914;73.444;2023-11-21T11:03:11;13.45;;;5.78;;
73823;SDS011;62154;54.914;73.444;2023-11-21T11:05:41;20.35;;;10.25;;
73823;SDS011;62154;54.914;73.444;2023-11-21T11:10:54;13.32;;;5.65;;
73823;SDS011;62154;54.914;73.444;2023-11-21T11:13:22;10.95;;;5.57;;
73823;SDS011;62154;54.914;73.444;2023-11-21T11:15:50;12.57;;;6.32;;
73823;SDS011;62154;54.914;73.444;2023-11-21T11:18:24;14.05;;;5.82;;
73823;SDS011;62154;54.914;73.444;2023-11-21T11:20:52;11.02;;;5.18;;
73823;SDS011;62154;54.914;73.444;2023-11-21T11:23:30;15.07;;;5.40;;
73823;SDS011;62154;54.914;73.444;2023-11-21T11:26:29;9.60;;;4.43;;
73823;SDS011;62154;54.914;73.444;2023-11-21T11:29:33;11.18;;;5.07;;
73823;SDS011;62154;54.914;73.444;2023-11-21T11:32:16;10.48;;;4.75;;
73823;SDS011;62154;54.914;73.444;2023-11-21T11:35:21;11.50;;;4.72;;
73823;SDS011;62154;54.914;73.444;2023-11-21T11:37:53;14.00;;;5.72;;
73823;SDS011;62154;54.914;73.444;2023-11-21T11:40:21;13.68;;;4.55;;
73823;SDS011;62154;54.914;73.444;2023-11-21T11:42:56;8.88;;;4.55;;
73823;SDS011;62154;54.914;73.444;2023-11-21T11:45:34;17.02;;;7.88;;
73823;SDS011;62154;54.914;73.444;2023-11-21T12:34:46;10.32;;;5.20;;
73823;SDS011;62154;54.914;73.444;2023-11-21T12:37:13;11.38;;;5.13;;
73823;SDS011;62154;54.914;73.444;2023-11-21T12:39:40;7.10;;;3.55;;
73823;SDS011;62154;54.914;73.444;2023-11-21T12:42:09;6.88;;;3.70;;
73823;SDS011;62154;54.914;73.444;2023-11-21T12:44:38;6.07;;;3.22;;
73823;SDS011;62154;54.914;73.444;2023-11-21T12:47:08;7.35;;;3.88;;
73823;SDS011;62154;54.914;73.444;2023-11-21T12:49:35;8.38;;;3.88;;
73823;SDS011;62154;54.914;73.444;2023-11-21T12:52:04;6.40;;;3.28;;
73823;SDS011;62154;54.914;73.444;2023-11-21T12:54:43;6.95;;;3.58;;
73823;SDS011;62154;54.914;73.444;2023-11-21T12:57:11;8.02;;;4.32;;
73823;SDS011;62154;54.914;73.444;2023-11-21T12:59:38;9.23;;;4.20;;
73823;SDS011;62154;54.914;73.444;2023-11-21T13:02:05;6.07;;;3.60;;
73823;SDS011;62154;54.914;73.444;2023-11-21T13:04:33;8.98;;;3.65;;
73823;SDS011;62154;54.914;73.444;2023-11-21T13:07:04;8.10;;;4.30;;
73823;SDS011;62154;54.914;73.444;2023-11-21T13:09:51;7.05;;;3.85;;
73823;SDS011;62154;54.914;73.444;2023-11-21T13:12:23;9.98;;;4.20;;
73823;SDS011;62154;54.914;73.444;2023-11-21T13:14:51;6.80;;;3.42;;
73823;SDS011;62154;54.914;73.444;2023-11-21T13:17:31;6.15;;;3.40;;
73823;SDS011;62154;54.914;73.444;2023-11-21T13:20:15;7.45;;;2.40;;
73823;SDS011;62154;54.914;73.444;2023-11-21T13:22:56;4.80;;;2.75;;
73823;SDS011;62154;54.914;73.444;2023-11-21T13:25:26;7.10;;;3.20;;
73823;SDS011;62154;54.914;73.444;2023-11-21T13:27:58;6.88;;;3.40;;
73823;SDS011;62154;54.914;73.444;2023-11-21T13:30:27;6.03;;;3.00;;
73823;SDS011;62154;54.914;73.444;2023-11-21T13:33:00;6.97;;;3.50;;
73823;SDS011;62154;54.914;73.444;2023-11-21T13:35:34;8.80;;;4.37;;
73823;SDS011;62154;54.914;73.444;2023-11-21T13:38:21;8.13;;;3.15;;
73823;SDS011;62154;54.914;73.444;2023-11-21T13:40:58;7.13;;;3.40;;
73823;SDS011;62154;54.914;73.444;2023-11-21T13:43:43;6.37;;;3.37;;
73823;SDS011;62154;54.914;73.444;2023-11-21T13:46:16;6.72;;;2.75;;
73823;SDS011;62154;54.914;73.444;2023-11-21T13:48:48;11.18;;;4.70;;
73823;SDS011;62154;54.914;73.444;2023-11-21T13:51:22;10.75;;;3.88;;
73823;SDS011;62154;54.914;73.444;2023-11-21T13:54:01;5.25;;;2.97;;
73823;SDS011;62154;54.914;73.444;2023-11-21T13:56:28;7.32;;;3.42;;
73823;SDS011;62154;54.914;73.444;2023-11-21T13:58:56;8.02;;;3.20;;
73823;SDS011;62154;54.914;73.444;2023-11-21T14:01:26;6.00;;;3.60;;
73823;SDS011;62154;54.914;73.444;2023-11-21T14:04:00;7.40;;;3.40;;
73823;SDS011;62154;54.914;73.444;2023-11-21T14:06:46;6.22;;;3.35;;
73823;SDS011;62154;54.914;73.444;2023-11-21T14:09:19;5.57;;;2.60;;
73823;SDS011;62154;54.914;73.444;2023-11-21T14:11:52;4.53;;;2.50;;
73823;SDS011;62154;54.914;73.444;2023-11-21T14:14:24;6.57;;;3.60;;
73823;SDS011;62154;54.914;73.444;2023-11-21T14:16:52;6.78;;;3.35;;
73823;SDS011;62154;54.914;73.444;2023-11-21T14:19:21;8.32;;;3.22;;
73823;SDS011;62154;54.914;73.444;2023-11-21T14:21:54;5.85;;;3.22;;
73823;SDS011;62154;54.914;73.444;2023-11-21T14:24:25;8.27;;;2.60;;
73823;SDS011;62154;54.914;73.444;2023-11-21T14:26:53;4.25;;;2.35;;
73823;SDS011;62154;54.914;73.444;2023-11-21T14:29:21;5.63;;;3.05;;
73823;SDS011;62154;54.914;73.444;2023-11-21T14:31:49;5.53;;;3.13;;
73823;SDS011;62154;54.914;73.444;2023-11-21T14:34:17;7.47;;;3.35;;
73823;SDS011;62154;54.914;73.444;2023-11-21T14:36:45;10.75;;;6.38;;
73823;SDS011;62154;54.914;73.444;2023-11-21T14:39:15;8.15;;;3.30;;
73823;SDS011;62154;54.914;73.444;2023-11-21T14:41:54;6.00;;;2.90;;
73823;SDS011;62154;54.914;73.444;2023-11-21T14:44:27;6.63;;;3.00;;
73823;SDS011;62154;54.914;73.444;2023-11-21T14:46:58;7.03;;;3.28;;
73823;SDS011;62154;54.914;73.444;2023-11-21T14:49:27;6.65;;;2.80;;
73823;SDS011;62154;54.914;73.444;2023-11-21T14:52:03;7.78;;;3.28;;
73823;SDS011;62154;54.914;73.444;2023-11-21T14:54:34;8.35;;;3.00;;
73823;SDS011;62154;54.914;73.444;2023-11-21T14:57:07;8.20;;;3.33;;
73823;SDS011;62154;54.914;73.444;2023-11-21T14:59:43;6.85;;;3.70;;
73823;SDS011;62154;54.914;73.444;2023-11-21T15:02:24;6.32;;;3.90;;
73823;SDS011;62154;54.914;73.444;2023-11-21T15:05:10;8.73;;;4.03;;
73823;SDS011;62154;54.914;73.444;2023-11-21T15:07:42;6.22;;;3.58;;
73823;SDS011;62154;54.914;73.444;2023-11-21T15:10:11;4.30;;;2.58;;
73823;SDS011;62154;54.914;73.444;2023-11-21T15:12:41;10.88;;;4.30;;
73823;SDS011;62154;54.914;73.444;2023-11-21T15:15:10;7.80;;;2.95;;
73823;SDS011;62154;54.914;73.444;2023-11-21T15:17:37;7.55;;;3.50;;
73823;SDS011;62154;54.914;73.444;2023-11-21T15:20:06;6.60;;;3.55;;
73823;SDS011;62154;54.914;73.444;2023-11-21T15:22:34;8.32;;;3.40;;
73823;SDS011;62154;54.914;73.444;2023-11-21T15:25:02;6.88;;;3.53;;